sensor_id;sensor_type;location;lat;lon;timestamp;pressure;altitude;pressure_sealevel;temperature;humidity
78121;BME280;67585;44.802;10.332;2023-05-10T00:01:20;100644.13;;;16.78;74.71
78121;BME280;67585;44.802;10.332;2023-05-10T00:03:46;100625.69;;;16.42;74.87
78121;BME280;67585;44.802;10.332;2023-05-10T00:06:11;100631.50;;;16.35;76.46
78121;BME280;67585;44.802;10.332;2023-05-10T00:08:37;100628.81;;;16.35;75.44
78121;BME280;67585;44.802;10.332;2023-05-10T00:11:02;100628.28;;;16.33;76.41
78121;BME280;67585;44.802;10.332;2023-05-10T00:13:28;100657.88;;;16.54;76.18
78121;BME280;67585;44.802;10.332;2023-05-10T00:15:53;100659.50;;;16.69;75.91
78121;BME280;67585;44.802;10.332;2023-05-10T00:18:19;100612.94;;;16.23;76.64
78121;BME280;67585;44.802;10.332;2023-05-10T00:20:44;100618.94;;;16.39;76.31
78121;BME280;67585;44.802;10.332;2023-05-10T00:23:11;100622.94;;;16.75;75.08
78121;BME280;67585;44.802;10.332;2023-05-10T00:25:37;100629.53;;;17.01;74.40
78121;BME280;67585;44.802;10.332;2023-05-10T00:28:02;100627.75;;;16.97;73.87
78121;BME280;67585;44.802;10.332;2023-05-10T00:30:27;100585.38;;;16.63;74.17
78121;BME280;67585;44.802;10.332;2023-05-10T00:32:53;100608.03;;;16.72;75.09
78121;BME280;67585;44.802;10.332;2023-05-10T00:35:18;100610.13;;;16.61;75.34
78121;BME280;67585;44.802;10.332;2023-05-10T00:37:44;100611.84;;;16.57;76.23
78121;BME280;67585;44.802;10.332;2023-05-10T00:40:13;100614.34;;;16.54;76.71
78121;BME280;67585;44.802;10.332;2023-05-10T00:42:38;100579.38;;;16.00;78.05
78121;BME280;67585;44.802;10.332;2023-05-10T00:45:04;100568.56;;;16.14;77.52
78121;BME280;67585;44.802;10.332;2023-05-10T00:47:30;100595.09;;;16.36;76.43
78121;BME280;67585;44.802;10.332;2023-05-10T00:49:56;100578.38;;;16.43;76.88
78121;BME280;67585;44.802;10.332;2023-05-10T00:52:22;100582.81;;;16.53;76.38
78121;BME280;67585;44.802;10.332;2023-05-10T00:54:50;100597.44;;;16.57;76.21
78121;BME280;67585;44.802;10.332;2023-05-10T00:57:15;100589.25;;;16.43;77.94
78121;BME280;67585;44.802;10.332;2023-05-10T00:59:40;100561.72;;;16.17;77.13
78121;BME280;67585;44.802;10.332;2023-05-10T01:02:06;100594.25;;;16.36;77.20
78121;BME280;67585;44.802;10.332;2023-05-10T01:04:32;100547.47;;;16.06;77.54
78121;BME280;67585;44.802;10.332;2023-05-10T01:06:58;100587.56;;;16.14;77.65
78121;BME280;67585;44.802;10.332;2023-05-10T01:09:24;100558.94;;;16.03;77.72
78121;BME280;67585;44.802;10.332;2023-05-10T01:11:51;100576.84;;;16.04;78.00
78121;BME280;67585;44.802;10.332;2023-05-10T01:14:18;100591.97;;;16.10;78.72
78121;BME280;67585;44.802;10.332;2023-05-10T01:16:45;100587.50;;;16.00;77.67
78121;BME280;67585;44.802;10.332;2023-05-10T01:19:23;100565.72;;;15.87;77.87
78121;BME280;67585;44.802;10.332;2023-05-10T01:33:56;100615.75;;;16.18;78.43
78121;BME280;67585;44.802;10.332;2023-05-10T01:36:43;100611.16;;;16.33;77.14
78121;BME280;67585;44.802;10.332;2023-05-10T01:41:52;100580.88;;;16.39;77.70
78121;BME280;67585;44.802;10.332;2023-05-10T01:44:42;100570.22;;;16.43;76.71
78121;BME280;67585;44.802;10.332;2023-05-10T01:47:17;100581.50;;;16.36;76.78
78121;BME280;67585;44.802;10.332;2023-05-10T01:49:53;100586.31;;;16.39;76.06
78121;BME280;67585;44.802;10.332;2023-05-10T01:52:25;100540.00;;;15.98;76.46
78121;BME280;67585;44.802;10.332;2023-05-10T01:55:02;100573.25;;;16.09;77.53
78121;BME280;67585;44.802;10.332;2023-05-10T01:57:35;100564.63;;;15.88;77.73
78121;BME280;67585;44.802;10.332;2023-05-10T02:00:02;100559.53;;;15.62;79.08
78121;BME280;67585;44.802;10.332;2023-05-10T02:02:30;100566.41;;;15.78;78.61
78121;BME280;67585;44.802;10.332;2023-05-10T02:04:59;100553.97;;;15.91;77.43
78121;BME280;67585;44.802;10.332;2023-05-10T02:07:27;100561.25;;;15.77;77.94
78121;BME280;67585;44.802;10.332;2023-05-10T02:09:53;100590.78;;;15.41;78.87
78121;BME280;67585;44.802;10.332;2023-05-10T02:12:22;100524.69;;;15.50;77.04
78121;BME280;67585;44.802;10.332;2023-05-10T02:14:50;100582.91;;;15.82;77.78
78121;BME280;67585;44.802;10.332;2023-05-10T02:17:18;100581.72;;;15.88;77.77
78121;BME280;67585;44.802;10.332;2023-05-10T02:19:45;100537.69;;;15.72;77.53
78121;BME280;67585;44.802;10.332;2023-05-10T02:22:12;100576.88;;;15.66;78.35
78121;BME280;67585;44.802;10.332;2023-05-10T02:24:39;100543.59;;;15.55;78.26
78121;BME280;67585;44.802;10.332;2023-05-10T02:27:06;100564.53;;;15.55;79.26
78121;BME280;67585;44.802;10.332;2023-05-10T02:29:32;100541.28;;;15.49;78.80
78121;BME280;67585;44.802;10.332;2023-05-10T02:31:59;100555.13;;;15.28;80.67
78121;BME280;67585;44.802;10.332;2023-05-10T02:34:26;100561.72;;;15.41;80.38
78121;BME280;67585;44.802;10.332;2023-05-10T02:36:52;100557.19;;;15.17;81.15
78121;BME280;67585;44.802;10.332;2023-05-10T02:39:19;100559.75;;;15.28;81.91
78121;BME280;67585;44.802;10.332;2023-05-10T02:41:46;100558.94;;;15.65;80.18
78121;BME280;67585;44.802;10.332;2023-05-10T02:44:15;100533.66;;;15.32;79.63
78121;BME280;67585;44.802;10.332;2023-05-10T02:46:41;100556.59;;;15.39;80.54
78121;BME280;67585;44.802;10.332;2023-05-10T02:49:06;100546.03;;;15.57;78.82
78121;BME280;67585;44.802;10.332;2023-05-10T02:51:32;100533.94;;;15.30;79.13
78121;BME280;67585;44.802;10.332;2023-05-10T02:54:19;100544.81;;;15.06;79.75
78121;BME280;67585;44.802;10.332;2023-05-10T02:56:51;100519.03;;;14.85;79.38
78121;BME280;67585;44.802;10.332;2023-05-10T02:59:19;100512.44;;;15.15;79.64
78121;BME280;67585;44.802;10.332;2023-05-10T03:01:44;100543.75;;;15.07;80.01
78121;BME280;67585;44.802;10.332;2023-05-10T03:04:10;100526.94;;;15.05;79.31
78121;BME280;67585;44.802;10.332;2023-05-10T03:06:35;100512.28;;;15.06;79.37
78121;BME280;67585;44.802;10.332;2023-05-10T03:09:01;100536.75;;;15.01;79.97
78121;BME280;67585;44.802;10.332;2023-05-10T03:11:49;100540.72;;;15.09;79.69
78121;BME280;67585;44.802;10.332;2023-05-10T03:17:14;100533.19;;;15.06;79.62
78121;BME280;67585;44.802;10.332;2023-05-10T03:20:08;100532.59;;;15.09;79.65
78121;BME280;67585;44.802;10.332;2023-05-10T03:22:46;100519.22;;;14.93;79.00
78121;BME280;67585;44.802;10.332;2023-05-10T03:25:15;100539.81;;;14.94;79.75
78121;BME280;67585;44.802;10.332;2023-05-10T03:27:43;100545.59;;;14.88;80.73
78121;BME280;67585;44.802;10.332;2023-05-10T03:30:11;100532.25;;;14.91;79.83
78121;BME280;67585;44.802;10.332;2023-05-10T03:32:38;100503.03;;;14.64;80.94
78121;BME280;67585;44.802;10.332;2023-05-10T03:35:10;100497.06;;;14.86;80.10
78121;BME280;67585;44.802;10.332;2023-05-10T03:37:38;100509.44;;;14.73;81.04
78121;BME280;67585;44.802;10.332;2023-05-10T03:40:07;100536.63;;;14.87;81.68
78121;BME280;67585;44.802;10.332;2023-05-10T03:42:32;100538.75;;;15.14;79.40
78121;BME280;67585;44.802;10.332;2023-05-10T03:44:58;100529.22;;;14.98;80.15
78121;BME280;67585;44.802;10.332;2023-05-10T03:47:23;100489.22;;;14.85;79.65
78121;BME280;67585;44.802;10.332;2023-05-10T03:49:48;100528.16;;;14.70;80.54
78121;BME280;67585;44.802;10.332;2023-05-10T03:52:14;100545.25;;;14.94;80.29
78121;BME280;67585;44.802;10.332;2023-05-10T03:54:39;100524.66;;;14.93;80.03
78121;BME280;67585;44.802;10.332;2023-05-10T03:57:05;100528.09;;;14.99;79.49
78121;BME280;67585;44.802;10.332;2023-05-10T03:59:30;100523.09;;;14.87;80.20
78121;BME280;67585;44.802;10.332;2023-05-10T04:01:56;100519.16;;;14.99;80.11
78121;BME280;67585;44.802;10.332;2023-05-10T04:04:21;100542.53;;;14.70;80.84
78121;BME280;67585;44.802;10.332;2023-05-10T04:06:48;100549.00;;;14.99;80.27
78121;BME280;67585;44.802;10.332;2023-05-10T04:09:13;100553.72;;;14.88;80.00
78121;BME280;67585;44.802;10.332;2023-05-10T04:11:39;100541.78;;;14.65;80.07
78121;BME280;67585;44.802;10.332;2023-05-10T04:14:04;100511.50;;;14.58;79.50
78121;BME280;67585;44.802;10.332;2023-05-10T04:16:30;100537.09;;;14.94;79.74
78121;BME280;67585;44.802;10.332;2023-05-10T04:18:55;100530.81;;;14.75;79.94
78121;BME280;67585;44.802;10.332;2023-05-10T04:21:20;100545.72;;;14.78;79.79
78121;BME280;67585;44.802;10.332;2023-05-10T04:23:46;100509.91;;;14.57;80.28
78121;BME280;67585;44.802;10.332;2023-05-10T04:26:12;100480.31;;;14.31;80.73
78121;BME280;67585;44.802;10.332;2023-05-10T04:28:38;100540.59;;;14.76;80.33
78121;BME280;67585;44.802;10.332;2023-05-10T04:31:08;100536.03;;;14.71;80.71
78121;BME280;67585;44.802;10.332;2023-05-10T04:33:34;100522.38;;;14.52;80.48
78121;BME280;67585;44.802;10.332;2023-05-10T04:35:59;100525.72;;;14.44;80.90
78121;BME280;67585;44.802;10.332;2023-05-10T04:38:26;100541.56;;;14.61;80.47
78121;BME280;67585;44.802;10.332;2023-05-10T04:40:52;100498.59;;;14.20;81.11
78121;BME280;67585;44.802;10.332;2023-05-10T04:43:17;100496.34;;;14.27;81.27
78121;BME280;67585;44.802;10.332;2023-05-10T04:45:43;100532.47;;;14.47;81.75
78121;BME280;67585;44.802;10.332;2023-05-10T04:48:08;100502.53;;;14.33;81.45
78121;BME280;67585;44.802;10.332;2023-05-10T04:50:33;100490.53;;;14.15;82.30
78121;BME280;67585;44.802;10.332;2023-05-10T04:52:59;100479.47;;;14.36;81.23
78121;BME280;67585;44.802;10.332;2023-05-10T04:55:24;100542.97;;;14.53;81.91
78121;BME280;67585;44.802;10.332;2023-05-10T04:57:50;100521.97;;;14.40;81.99
78121;BME280;67585;44.802;10.332;2023-05-10T05:00:16;100520.78;;;14.46;81.22
78121;BME280;67585;44.802;10.332;2023-05-10T05:02:44;100527.28;;;14.50;81.77
78121;BME280;67585;44.802;10.332;2023-05-10T05:05:12;100513.69;;;14.56;82.41
78121;BME280;67585;44.802;10.332;2023-05-10T05:07:38;100526.25;;;14.70;81.15
78121;BME280;67585;44.802;10.332;2023-05-10T05:10:07;100540.94;;;14.93;80.97
78121;BME280;67585;44.802;10.332;2023-05-10T05:12:34;100524.31;;;14.76;82.09
78121;BME280;67585;44.802;10.332;2023-05-10T05:14:59;100514.59;;;14.94;80.46
78121;BME280;67585;44.802;10.332;2023-05-10T05:17:25;100529.59;;;15.10;79.72
78121;BME280;67585;44.802;10.332;2023-05-10T05:19:50;100509.94;;;14.75;79.73
78121;BME280;67585;44.802;10.332;2023-05-10T05:22:15;100522.59;;;14.61;80.57
78121;BME280;67585;44.802;10.332;2023-05-10T05:24:41;100535.63;;;14.59;81.33
78121;BME280;67585;44.802;10.332;2023-05-10T05:27:06;100510.66;;;14.33;80.04
78121;BME280;67585;44.802;10.332;2023-05-10T05:29:32;100509.16;;;14.46;79.30
78121;BME280;67585;44.802;10.332;2023-05-10T05:31:57;100537.69;;;14.67;79.25
78121;BME280;67585;44.802;10.332;2023-05-10T05:34:23;100508.75;;;14.04;79.43
78121;BME280;67585;44.802;10.332;2023-05-10T05:36:49;100553.06;;;14.19;79.83
78121;BME280;67585;44.802;10.332;2023-05-10T05:39:14;100542.22;;;14.19;79.73
78121;BME280;67585;44.802;10.332;2023-05-10T05:41:40;100509.13;;;13.93;79.20
78121;BME280;67585;44.802;10.332;2023-05-10T05:44:05;100539.88;;;14.07;79.32
78121;BME280;67585;44.802;10.332;2023-05-10T05:46:31;100523.72;;;13.97;78.87
78121;BME280;67585;44.802;10.332;2023-05-10T05:48:56;100560.31;;;14.23;79.20
78121;BME280;67585;44.802;10.332;2023-05-10T05:51:22;100550.44;;;14.08;79.57
78121;BME280;67585;44.802;10.332;2023-05-10T05:53:47;100562.53;;;13.87;79.66
78121;BME280;67585;44.802;10.332;2023-05-10T05:56:13;100452.44;;;13.38;79.57
78121;BME280;67585;44.802;10.332;2023-05-10T05:58:39;100523.19;;;13.60;79.98
78121;BME280;67585;44.802;10.332;2023-05-10T06:01:07;100560.25;;;13.99;79.65
78121;BME280;67585;44.802;10.332;2023-05-10T06:03:35;100483.53;;;13.40;79.82
78121;BME280;67585;44.802;10.332;2023-05-10T06:06:01;100541.66;;;13.87;79.73
78121;BME280;67585;44.802;10.332;2023-05-10T06:08:29;100519.56;;;13.75;80.47
78121;BME280;67585;44.802;10.332;2023-05-10T06:10:59;100571.78;;;14.15;78.77
78121;BME280;67585;44.802;10.332;2023-05-10T06:13:24;100543.53;;;13.92;78.31
78121;BME280;67585;44.802;10.332;2023-05-10T06:15:54;100456.13;;;13.08;80.05
78121;BME280;67585;44.802;10.332;2023-05-10T06:18:22;100578.44;;;13.94;80.13
78121;BME280;67585;44.802;10.332;2023-05-10T06:20:49;100557.34;;;13.90;80.29
78121;BME280;67585;44.802;10.332;2023-05-10T06:23:15;100573.31;;;13.92;80.91
78121;BME280;67585;44.802;10.332;2023-05-10T06:25:40;100515.28;;;13.69;79.88
78121;BME280;67585;44.802;10.332;2023-05-10T06:28:05;100580.91;;;14.24;78.84
78121;BME280;67585;44.802;10.332;2023-05-10T06:30:31;100513.34;;;13.75;78.45
78121;BME280;67585;44.802;10.332;2023-05-10T06:32:56;100535.09;;;13.59;80.46
78121;BME280;67585;44.802;10.332;2023-05-10T06:35:22;100557.41;;;13.80;79.98
78121;BME280;67585;44.802;10.332;2023-05-10T06:37:50;100561.03;;;13.65;80.86
78121;BME280;67585;44.802;10.332;2023-05-10T06:40:16;100446.97;;;13.03;79.82
78121;BME280;67585;44.802;10.332;2023-05-10T06:42:42;100551.53;;;13.68;80.53
78121;BME280;67585;44.802;10.332;2023-05-10T06:45:08;100545.22;;;13.83;80.23
78121;BME280;67585;44.802;10.332;2023-05-10T06:47:34;100600.66;;;14.30;79.53
78121;BME280;67585;44.802;10.332;2023-05-10T06:49:59;100575.94;;;14.02;79.69
78121;BME280;67585;44.802;10.332;2023-05-10T06:52:25;100591.34;;;14.07;79.47
78121;BME280;67585;44.802;10.332;2023-05-10T06:54:50;100556.34;;;13.81;78.60
78121;BME280;67585;44.802;10.332;2023-05-10T06:57:15;100608.09;;;14.14;79.44
78121;BME280;67585;44.802;10.332;2023-05-10T06:59:41;100623.22;;;14.20;78.84
78121;BME280;67585;44.802;10.332;2023-05-10T07:02:06;100626.59;;;14.36;78.34
78121;BME280;67585;44.802;10.332;2023-05-10T07:04:32;100578.97;;;13.96;78.28
78121;BME280;67585;44.802;10.332;2023-05-10T07:06:57;100595.69;;;14.08;77.58
78121;BME280;67585;44.802;10.332;2023-05-10T07:09:23;100604.34;;;14.05;76.98
78121;BME280;67585;44.802;10.332;2023-05-10T07:11:49;100623.22;;;14.20;77.72
78121;BME280;67585;44.802;10.332;2023-05-10T07:14:14;100631.84;;;14.22;77.89
78121;BME280;67585;44.802;10.332;2023-05-10T07:16:40;100633.53;;;14.18;77.27
78121;BME280;67585;44.802;10.332;2023-05-10T07:19:05;100603.91;;;13.93;78.52
78121;BME280;67585;44.802;10.332;2023-05-10T07:21:31;100630.28;;;14.16;77.44
78121;BME280;67585;44.802;10.332;2023-05-10T07:23:57;100605.72;;;14.02;77.45
78121;BME280;67585;44.802;10.332;2023-05-10T07:26:22;100606.88;;;13.96;77.27
78121;BME280;67585;44.802;10.332;2023-05-10T07:28:49;100653.94;;;14.00;77.24
78121;BME280;67585;44.802;10.332;2023-05-10T07:31:14;100637.38;;;14.07;76.72
78121;BME280;67585;44.802;10.332;2023-05-10T07:33:40;100617.75;;;13.91;76.82
78121;BME280;67585;44.802;10.332;2023-05-10T07:36:06;100643.19;;;13.90;77.99
78121;BME280;67585;44.802;10.332;2023-05-10T07:38:31;100662.78;;;14.16;77.92
78121;BME280;67585;44.802;10.332;2023-05-10T07:40:56;100669.06;;;14.11;77.28
78121;BME280;67585;44.802;10.332;2023-05-10T07:43:22;100665.66;;;13.96;77.84
78121;BME280;67585;44.802;10.332;2023-05-10T07:45:47;100623.19;;;13.81;76.91
78121;BME280;67585;44.802;10.332;2023-05-10T07:48:13;100662.06;;;14.00;78.15
78121;BME280;67585;44.802;10.332;2023-05-10T07:50:38;100648.94;;;13.78;78.14
78121;BME280;67585;44.802;10.332;2023-05-10T07:53:03;100665.56;;;13.56;79.71
78121;BME280;67585;44.802;10.332;2023-05-10T07:55:29;100650.59;;;13.74;77.50
78121;BME280;67585;44.802;10.332;2023-05-10T07:57:54;100662.25;;;13.75;78.21
78121;BME280;67585;44.802;10.332;2023-05-10T08:00:20;100676.34;;;13.72;77.69
78121;BME280;67585;44.802;10.332;2023-05-10T08:02:46;100689.84;;;13.77;78.73
78121;BME280;67585;44.802;10.332;2023-05-10T08:05:12;100656.56;;;13.71;76.64
78121;BME280;67585;44.802;10.332;2023-05-10T08:07:39;100677.34;;;13.86;77.12
78121;BME280;67585;44.802;10.332;2023-05-10T08:10:05;100653.53;;;13.78;76.76
78121;BME280;67585;44.802;10.332;2023-05-10T08:12:30;100684.91;;;13.89;76.77
78121;BME280;67585;44.802;10.332;2023-05-10T08:14:56;100676.16;;;13.53;77.72
78121;BME280;67585;44.802;10.332;2023-05-10T08:17:21;100675.22;;;13.78;77.33
78121;BME280;67585;44.802;10.332;2023-05-10T08:19:47;100626.63;;;13.47;77.52
78121;BME280;67585;44.802;10.332;2023-05-10T08:22:12;100715.19;;;13.96;77.47
78121;BME280;67585;44.802;10.332;2023-05-10T08:24:38;100689.97;;;13.46;79.02
78121;BME280;67585;44.802;10.332;2023-05-10T08:27:08;100680.25;;;13.40;78.73
78121;BME280;67585;44.802;10.332;2023-05-10T08:29:33;100673.03;;;13.80;76.82
78121;BME280;67585;44.802;10.332;2023-05-10T08:31:59;100703.25;;;13.97;76.32
78121;BME280;67585;44.802;10.332;2023-05-10T08:34:26;100727.91;;;14.01;76.74
78121;BME280;67585;44.802;10.332;2023-05-10T08:36:51;100705.47;;;13.90;76.35
78121;BME280;67585;44.802;10.332;2023-05-10T08:39:17;100705.47;;;13.90;75.99
78121;BME280;67585;44.802;10.332;2023-05-10T08:41:43;100709.47;;;13.98;76.40
78121;BME280;67585;44.802;10.332;2023-05-10T08:44:09;100732.72;;;14.09;74.88
78121;BME280;67585;44.802;10.332;2023-05-10T08:46:36;100696.66;;;13.69;75.81
78121;BME280;67585;44.802;10.332;2023-05-10T08:49:06;100730.47;;;13.77;76.85
78121;BME280;67585;44.802;10.332;2023-05-10T08:51:35;100725.06;;;13.66;76.92
78121;BME280;67585;44.802;10.332;2023-05-10T08:54:02;100704.06;;;13.43;78.12
78121;BME280;67585;44.802;10.332;2023-05-10T08:56:28;100716.13;;;13.76;76.46
78121;BME280;67585;44.802;10.332;2023-05-10T08:58:54;100702.75;;;13.30;77.26
78121;BME280;67585;44.802;10.332;2023-05-10T09:01:21;100672.97;;;13.20;76.77
78121;BME280;67585;44.802;10.332;2023-05-10T09:03:46;100749.09;;;13.83;76.00
78121;BME280;67585;44.802;10.332;2023-05-10T09:06:12;100739.34;;;13.87;76.05
78121;BME280;67585;44.802;10.332;2023-05-10T09:08:38;100755.34;;;13.79;77.46
78121;BME280;67585;44.802;10.332;2023-05-10T09:11:05;100745.25;;;13.95;75.47
78121;BME280;67585;44.802;10.332;2023-05-10T09:13:30;100749.59;;;13.90;76.28
78121;BME280;67585;44.802;10.332;2023-05-10T09:15:57;100748.31;;;13.78;75.55
78121;BME280;67585;44.802;10.332;2023-05-10T09:18:23;100725.63;;;13.63;76.42
78121;BME280;67585;44.802;10.332;2023-05-10T09:20:49;100759.34;;;13.97;76.54
78121;BME280;67585;44.802;10.332;2023-05-10T09:23:14;100745.88;;;13.81;76.71
78121;BME280;67585;44.802;10.332;2023-05-10T09:25:41;100753.19;;;13.76;77.08
78121;BME280;67585;44.802;10.332;2023-05-10T09:28:07;100765.38;;;13.73;78.30
78121;BME280;67585;44.802;10.332;2023-05-10T09:30:33;100747.00;;;13.65;77.92
78121;BME280;67585;44.802;10.332;2023-05-10T09:32:59;100767.97;;;14.04;75.46
78121;BME280;67585;44.802;10.332;2023-05-10T09:35:27;100704.63;;;13.30;78.04
78121;BME280;67585;44.802;10.332;2023-05-10T09:37:55;100766.69;;;13.81;76.84
78121;BME280;67585;44.802;10.332;2023-05-10T09:40:25;100757.16;;;13.99;76.18
78121;BME280;67585;44.802;10.332;2023-05-10T09:45:23;100707.03;;;13.36;77.65
78121;BME280;67585;44.802;10.332;2023-05-10T09:47:48;100757.50;;;13.82;76.36
78121;BME280;67585;44.802;10.332;2023-05-10T09:50:14;100770.72;;;13.94;77.19
78121;BME280;67585;44.802;10.332;2023-05-10T09:52:55;100775.88;;;13.90;76.72
78121;BME280;67585;44.802;10.332;2023-05-10T09:55:25;100767.72;;;13.95;76.37
78121;BME280;67585;44.802;10.332;2023-05-10T09:57:59;100755.34;;;13.74;76.83
78121;BME280;67585;44.802;10.332;2023-05-10T10:00:25;100768.63;;;13.75;77.67
78121;BME280;67585;44.802;10.332;2023-05-10T10:02:59;100764.56;;;13.73;78.03
78121;BME280;67585;44.802;10.332;2023-05-10T10:05:33;100758.91;;;13.69;78.40
78121;BME280;67585;44.802;10.332;2023-05-10T10:07:59;100744.09;;;13.41;79.21
78121;BME280;67585;44.802;10.332;2023-05-10T10:10:25;100769.91;;;13.88;78.41
78121;BME280;67585;44.802;10.332;2023-05-10T10:12:51;100760.38;;;14.06;77.64
78121;BME280;67585;44.802;10.332;2023-05-10T10:15:17;100769.50;;;13.60;78.65
78121;BME280;67585;44.802;10.332;2023-05-10T10:17:43;100735.75;;;13.27;80.62
78121;BME280;67585;44.802;10.332;2023-05-10T10:20:09;100748.19;;;13.28;80.83
78121;BME280;67585;44.802;10.332;2023-05-10T10:22:37;100751.56;;;13.80;79.44
78121;BME280;67585;44.802;10.332;2023-05-10T10:25:04;100763.56;;;13.48;80.54
78121;BME280;67585;44.802;10.332;2023-05-10T10:30:33;100762.50;;;13.39;80.21
78121;BME280;67585;44.802;10.332;2023-05-10T10:35:32;100756.53;;;13.42;80.33
78121;BME280;67585;44.802;10.332;2023-05-10T10:37:58;100661.41;;;12.94;79.85
78121;BME280;67585;44.802;10.332;2023-05-10T10:40:31;100754.84;;;13.66;78.87
78121;BME280;67585;44.802;10.332;2023-05-10T10:42:56;100762.97;;;13.66;77.70
78121;BME280;67585;44.802;10.332;2023-05-10T10:45:24;100754.22;;;13.90;77.50
78121;BME280;67585;44.802;10.332;2023-05-10T10:48:21;100758.75;;;14.05;78.19
78121;BME280;67585;44.802;10.332;2023-05-10T10:50:47;100751.97;;;14.07;76.43
78121;BME280;67585;44.802;10.332;2023-05-10T10:53:12;100752.59;;;13.89;77.91
78121;BME280;67585;44.802;10.332;2023-05-10T10:55:47;100718.31;;;13.59;78.49
78121;BME280;67585;44.802;10.332;2023-05-10T10:58:31;100734.53;;;13.74;76.76
78121;BME280;67585;44.802;10.332;2023-05-10T11:01:16;100755.88;;;13.86;77.07
78121;BME280;67585;44.802;10.332;2023-05-10T11:04:27;100746.38;;;13.83;76.67
78121;BME280;67585;44.802;10.332;2023-05-10T11:06:32;100736.69;;;13.77;77.78
78121;BME280;67585;44.802;10.332;2023-05-10T11:08:59;100744.53;;;13.74;79.09
78121;BME280;67585;44.802;10.332;2023-05-10T11:11:24;100688.94;;;13.16;77.30
78121;BME280;67585;44.802;10.332;2023-05-10T11:13:50;100734.22;;;13.76;77.98
78121;BME280;67585;44.802;10.332;2023-05-10T11:16:20;100722.53;;;13.85;77.01
78121;BME280;67585;44.802;10.332;2023-05-10T11:19:03;100729.31;;;13.88;77.14
78121;BME280;67585;44.802;10.332;2023-05-10T11:21:30;100741.25;;;13.82;77.17
78121;BME280;67585;44.802;10.332;2023-05-10T11:23:57;100740.66;;;13.90;76.91
78121;BME280;67585;44.802;10.332;2023-05-10T11:26:31;100745.19;;;14.05;75.72
78121;BME280;67585;44.802;10.332;2023-05-10T11:28:56;100745.44;;;14.14;75.51
78121;BME280;67585;44.802;10.332;2023-05-10T11:31:22;100692.53;;;14.26;74.45
78121;BME280;67585;44.802;10.332;2023-05-10T11:33:51;100734.34;;;14.15;75.56
78121;BME280;67585;44.802;10.332;2023-05-10T11:36:27;100705.63;;;13.59;75.60
78121;BME280;67585;44.802;10.332;2023-05-10T11:38:54;100717.59;;;13.38;77.03
78121;BME280;67585;44.802;10.332;2023-05-10T11:41:21;100736.72;;;13.67;77.73
78121;BME280;67585;44.802;10.332;2023-05-10T11:43:48;100702.59;;;13.66;77.56
78121;BME280;67585;44.802;10.332;2023-05-10T11:46:14;100697.16;;;13.76;79.26
78121;BME280;67585;44.802;10.332;2023-05-10T11:48:41;100709.91;;;13.65;77.20
78121;BME280;67585;44.802;10.332;2023-05-10T11:51:10;100717.47;;;13.79;77.95
78121;BME280;67585;44.802;10.332;2023-05-10T11:53:36;100731.56;;;13.71;76.96
78121;BME280;67585;44.802;10.332;2023-05-10T11:56:07;100720.50;;;13.57;77.79
78121;BME280;67585;44.802;10.332;2023-05-10T11:58:33;100734.47;;;13.84;77.67
78121;BME280;67585;44.802;10.332;2023-05-10T12:00:59;100733.72;;;14.23;75.80
78121;BME280;67585;44.802;10.332;2023-05-10T12:03:26;100731.13;;;14.08;76.38
78121;BME280;67585;44.802;10.332;2023-05-10T12:05:52;100636.47;;;13.12;77.85
78121;BME280;67585;44.802;10.332;2023-05-10T12:08:29;100718.00;;;13.76;76.73
78121;BME280;67585;44.802;10.332;2023-05-10T12:11:07;100730.22;;;13.68;76.98
78121;BME280;67585;44.802;10.332;2023-05-10T12:13:41;100729.91;;;13.80;77.79
78121;BME280;67585;44.802;10.332;2023-05-10T12:16:20;100701.53;;;13.57;76.42
78121;BME280;67585;44.802;10.332;2023-05-10T12:18:53;100731.81;;;13.74;76.94
78121;BME280;67585;44.802;10.332;2023-05-10T12:21:20;100723.63;;;13.89;78.30
78121;BME280;67585;44.802;10.332;2023-05-10T12:23:47;100731.78;;;13.79;78.11
78121;BME280;67585;44.802;10.332;2023-05-10T12:26:13;100725.56;;;13.74;78.81
78121;BME280;67585;44.802;10.332;2023-05-10T12:28:39;100702.34;;;13.62;77.91
78121;BME280;67585;44.802;10.332;2023-05-10T12:31:05;100733.66;;;13.89;77.47
78121;BME280;67585;44.802;10.332;2023-05-10T12:33:39;100685.59;;;13.55;77.94
78121;BME280;67585;44.802;10.332;2023-05-10T12:36:08;100709.00;;;13.85;77.26
78121;BME280;67585;44.802;10.332;2023-05-10T12:38:37;100723.66;;;13.84;78.07
78121;BME280;67585;44.802;10.332;2023-05-10T12:41:08;100727.06;;;14.00;77.94
78121;BME280;67585;44.802;10.332;2023-05-10T12:43:34;100690.38;;;13.79;77.90
78121;BME280;67585;44.802;10.332;2023-05-10T12:46:17;100681.75;;;13.72;78.16
78121;BME280;67585;44.802;10.332;2023-05-10T12:48:43;100717.75;;;13.72;78.63
78121;BME280;67585;44.802;10.332;2023-05-10T12:51:09;100712.50;;;13.96;78.18
78121;BME280;67585;44.802;10.332;2023-05-10T12:53:39;100727.59;;;14.02;78.03
78121;BME280;67585;44.802;10.332;2023-05-10T12:56:05;100721.03;;;14.19;77.55
78121;BME280;67585;44.802;10.332;2023-05-10T12:58:30;100721.41;;;14.41;77.32
78121;BME280;67585;44.802;10.332;2023-05-10T13:00:57;100719.03;;;14.35;77.64
78121;BME280;67585;44.802;10.332;2023-05-10T13:03:22;100693.28;;;13.87;77.59
78121;BME280;67585;44.802;10.332;2023-05-10T13:05:48;100670.09;;;13.71;76.59
78121;BME280;67585;44.802;10.332;2023-05-10T13:08:14;100723.59;;;13.95;77.27